sensor_id;sensor_type;location;lat;lon;timestamp;temperature;humidity
10233;DHT22;5161;48.174;11.756;2023-06-26T00:00:27;22.50;51.90
10233;DHT22;5161;48.174;11.756;2023-06-26T00:02:52;22.40;52.10
10233;DHT22;5161;48.174;11.756;2023-06-26T00:05:18;22.30;52.20
10233;DHT22;5161;48.174;11.756;2023-06-26T00:07:44;22.30;52.40
10233;DHT22;5161;48.174;11.756;2023-06-26T00:10:09;22.20;52.60
10233;DHT22;5161;48.174;11.756;2023-06-26T00:12:35;22.20;52.80
10233;DHT22;5161;48.174;11.756;2023-06-26T00:15:01;22.20;52.70
10233;DHT22;5161;48.174;11.756;2023-06-26T00:17:26;22.10;52.60
10233;DHT22;5161;48.174;11.756;2023-06-26T00:19:52;22.10;52.60
10233;DHT22;5161;48.174;11.756;2023-06-26T00:22:18;22.10;52.80
10233;DHT22;5161;48.174;11.756;2023-06-26T00:24:44;22.00;52.80
10233;DHT22;5161;48.174;11.756;2023-06-26T00:27:10;22.00;53.00
10233;DHT22;5161;48.174;11.756;2023-06-26T00:29:38;22.00;52.80
10233;DHT22;5161;48.174;11.756;2023-06-26T00:32:04;21.90;52.40
10233;DHT22;5161;48.174;11.756;2023-06-26T00:34:30;21.90;52.50
10233;DHT22;5161;48.174;11.756;2023-06-26T00:36:56;21.90;52.20
10233;DHT22;5161;48.174;11.756;2023-06-26T00:39:22;21.90;52.50
10233;DHT22;5161;48.174;11.756;2023-06-26T00:41:51;21.90;51.80
10233;DHT22;5161;48.174;11.756;2023-06-26T00:44:19;21.90;51.90
10233;DHT22;5161;48.174;11.756;2023-06-26T00:46:47;21.90;51.70
10233;DHT22;5161;48.174;11.756;2023-06-26T00:49:13;21.90;51.60
10233;DHT22;5161;48.174;11.756;2023-06-26T00:51:39;21.80;51.60
10233;DHT22;5161;48.174;11.756;2023-06-26T00:54:05;21.80;51.50
10233;DHT22;5161;48.174;11.756;2023-06-26T00:56:31;21.80;51.50
10233;DHT22;5161;48.174;11.756;2023-06-26T00:58:57;21.80;51.50
10233;DHT22;5161;48.174;11.756;2023-06-26T01:01:23;21.80;51.50
10233;DHT22;5161;48.174;11.756;2023-06-26T01:03:51;21.80;51.50
10233;DHT22;5161;48.174;11.756;2023-06-26T01:06:20;21.80;51.50
10233;DHT22;5161;48.174;11.756;2023-06-26T01:08:46;21.80;51.50
10233;DHT22;5161;48.174;11.756;2023-06-26T01:11:13;21.80;51.30
10233;DHT22;5161;48.174;11.756;2023-06-26T01:13:40;21.80;51.20
10233;DHT22;5161;48.174;11.756;2023-06-26T01:16:06;21.70;51.20
10233;DHT22;5161;48.174;11.756;2023-06-26T01:18:32;21.70;51.30
10233;DHT22;5161;48.174;11.756;2023-06-26T01:21:00;21.60;51.20
10233;DHT22;5161;48.174;11.756;2023-06-26T01:23:58;21.60;51.30
10233;DHT22;5161;48.174;11.756;2023-06-26T01:26:28;21.60;51.60
10233;DHT22;5161;48.174;11.756;2023-06-26T01:28:56;21.70;51.40
10233;DHT22;5161;48.174;11.756;2023-06-26T01:31:22;21.60;51.30
10233;DHT22;5161;48.174;11.756;2023-06-26T01:33:49;21.60;51.80
10233;DHT22;5161;48.174;11.756;2023-06-26T01:36:15;21.60;51.30
10233;DHT22;5161;48.174;11.756;2023-06-26T01:38:41;21.60;51.30
10233;DHT22;5161;48.174;11.756;2023-06-26T01:41:07;21.50;51.40
10233;DHT22;5161;48.174;11.756;2023-06-26T01:49:29;21.50;52.00
10233;DHT22;5161;48.174;11.756;2023-06-26T01:52:12;21.50;52.20
10233;DHT22;5161;48.174;11.756;2023-06-26T01:54:49;21.50;52.00
10233;DHT22;5161;48.174;11.756;2023-06-26T01:57:18;21.40;52.10
10233;DHT22;5161;48.174;11.756;2023-06-26T01:59:46;21.40;52.10
10233;DHT22;5161;48.174;11.756;2023-06-26T02:02:12;21.40;52.70
10233;DHT22;5161;48.174;11.756;2023-06-26T02:04:38;21.30;52.00
10233;DHT22;5161;48.174;11.756;2023-06-26T02:07:04;21.30;52.00
10233;DHT22;5161;48.174;11.756;2023-06-26T02:09:29;21.30;52.10
10233;DHT22;5161;48.174;11.756;2023-06-26T02:11:55;21.30;52.00
10233;DHT22;5161;48.174;11.756;2023-06-26T02:14:20;21.20;52.00
10233;DHT22;5161;48.174;11.756;2023-06-26T02:16:46;21.30;52.20
10233;DHT22;5161;48.174;11.756;2023-06-26T02:19:11;21.20;52.10
10233;DHT22;5161;48.174;11.756;2023-06-26T02:21:37;21.20;52.20
10233;DHT22;5161;48.174;11.756;2023-06-26T02:24:04;21.20;52.30
10233;DHT22;5161;48.174;11.756;2023-06-26T02:26:30;21.20;52.40
10233;DHT22;5161;48.174;11.756;2023-06-26T02:28:55;21.10;52.30
10233;DHT22;5161;48.174;11.756;2023-06-26T02:31:21;21.10;52.40
10233;DHT22;5161;48.174;11.756;2023-06-26T02:33:47;21.10;52.40
10233;DHT22;5161;48.174;11.756;2023-06-26T02:36:12;21.10;52.40
10233;DHT22;5161;48.174;11.756;2023-06-26T02:38:38;21.00;52.40
10233;DHT22;5161;48.174;11.756;2023-06-26T02:41:03;21.00;52.40
10233;DHT22;5161;48.174;11.756;2023-06-26T02:43:29;21.00;52.20
10233;DHT22;5161;48.174;11.756;2023-06-26T02:45:55;21.00;52.20
10233;DHT22;5161;48.174;11.756;2023-06-26T02:48:20;21.00;52.20
10233;DHT22;5161;48.174;11.756;2023-06-26T02:50:46;21.00;52.20
10233;DHT22;5161;48.174;11.756;2023-06-26T02:53:12;20.90;52.20
10233;DHT22;5161;48.174;11.756;2023-06-26T02:55:38;20.90;52.10
10233;DHT22;5161;48.174;11.756;2023-06-26T02:58:03;20.90;52.30
10233;DHT22;5161;48.174;11.756;2023-06-26T03:00:30;20.90;52.30
10233;DHT22;5161;48.174;11.756;2023-06-26T03:02:56;20.80;52.20
10233;DHT22;5161;48.174;11.756;2023-06-26T03:05:22;20.80;52.30
10233;DHT22;5161;48.174;11.756;2023-06-26T03:07:49;20.80;52.50
10233;DHT22;5161;48.174;11.756;2023-06-26T03:10:15;20.80;52.70
10233;DHT22;5161;48.174;11.756;2023-06-26T03:12:40;20.70;52.70
10233;DHT22;5161;48.174;11.756;2023-06-26T03:15:06;20.70;52.90
10233;DHT22;5161;48.174;11.756;2023-06-26T03:17:32;20.70;53.20
10233;DHT22;5161;48.174;11.756;2023-06-26T03:19:57;20.70;53.30
10233;DHT22;5161;48.174;11.756;2023-06-26T03:22:23;20.70;53.30
10233;DHT22;5161;48.174;11.756;2023-06-26T03:24:49;20.60;53.40
10233;DHT22;5161;48.174;11.756;2023-06-26T03:27:14;20.60;53.70
10233;DHT22;5161;48.174;11.756;2023-06-26T03:29:40;20.50;54.10
10233;DHT22;5161;48.174;11.756;2023-06-26T03:32:06;20.50;53.60
10233;DHT22;5161;48.174;11.756;2023-06-26T03:34:32;20.50;53.50
10233;DHT22;5161;48.174;11.756;2023-06-26T03:36:58;20.50;53.50
10233;DHT22;5161;48.174;11.756;2023-06-26T03:39:24;20.50;53.50
10233;DHT22;5161;48.174;11.756;2023-06-26T03:41:52;20.40;53.40
10233;DHT22;5161;48.174;11.756;2023-06-26T03:44:23;20.50;53.20
10233;DHT22;5161;48.174;11.756;2023-06-26T03:46:49;20.40;53.70
10233;DHT22;5161;48.174;11.756;2023-06-26T03:49:16;20.50;53.40
10233;DHT22;5161;48.174;11.756;2023-06-26T03:51:45;20.50;53.30
10233;DHT22;5161;48.174;11.756;2023-06-26T03:54:11;20.50;53.20
10233;DHT22;5161;48.174;11.756;2023-06-26T03:56:39;20.50;53.10
10233;DHT22;5161;48.174;11.756;2023-06-26T03:59:05;20.40;52.90
10233;DHT22;5161;48.174;11.756;2023-06-26T04:01:30;20.40;53.20
10233;DHT22;5161;48.174;11.756;2023-06-26T04:03:56;20.40;53.20
10233;DHT22;5161;48.174;11.756;2023-06-26T04:06:22;20.40;53.00
10233;DHT22;5161;48.174;11.756;2023-06-26T04:08:47;20.50;53.10
10233;DHT22;5161;48.174;11.756;2023-06-26T04:11:13;20.50;53.00
10233;DHT22;5161;48.174;11.756;2023-06-26T04:13:39;20.50;52.90
10233;DHT22;5161;48.174;11.756;2023-06-26T04:16:05;20.50;52.80
10233;DHT22;5161;48.174;11.756;2023-06-26T04:18:32;20.50;53.00
10233;DHT22;5161;48.174;11.756;2023-06-26T04:21:10;20.40;52.90
10233;DHT22;5161;48.174;11.756;2023-06-26T04:23:37;20.50;52.70
10233;DHT22;5161;48.174;11.756;2023-06-26T04:26:04;20.50;52.90
10233;DHT22;5161;48.174;11.756;2023-06-26T04:28:31;20.60;53.00
10233;DHT22;5161;48.174;11.756;2023-06-26T04:30:57;20.60;53.00
10233;DHT22;5161;48.174;11.756;2023-06-26T04:33:23;20.60;53.20
10233;DHT22;5161;48.174;11.756;2023-06-26T04:35:48;20.60;53.60
10233;DHT22;5161;48.174;11.756;2023-06-26T04:38:14;20.70;53.90
10233;DHT22;5161;48.174;11.756;2023-06-26T04:40:41;20.70;54.10
10233;DHT22;5161;48.174;11.756;2023-06-26T04:43:06;20.70;54.20
10233;DHT22;5161;48.174;11.756;2023-06-26T04:45:32;20.60;54.20
10233;DHT22;5161;48.174;11.756;2023-06-26T04:47:57;20.70;54.30
10233;DHT22;5161;48.174;11.756;2023-06-26T04:50:25;20.70;54.20
10233;DHT22;5161;48.174;11.756;2023-06-26T04:52:50;20.70;54.00
10233;DHT22;5161;48.174;11.756;2023-06-26T04:55:16;20.80;54.00
10233;DHT22;5161;48.174;11.756;2023-06-26T04:57:41;20.70;53.60
10233;DHT22;5161;48.174;11.756;2023-06-26T05:00:07;20.70;53.80
10233;DHT22;5161;48.174;11.756;2023-06-26T05:02:36;20.70;53.60
10233;DHT22;5161;48.174;11.756;2023-06-26T05:05:01;20.70;53.60
10233;DHT22;5161;48.174;11.756;2023-06-26T05:07:27;20.70;53.70
10233;DHT22;5161;48.174;11.756;2023-06-26T05:09:53;20.80;53.60
10233;DHT22;5161;48.174;11.756;2023-06-26T05:12:18;20.80;53.60
10233;DHT22;5161;48.174;11.756;2023-06-26T05:14:44;20.80;53.80
10233;DHT22;5161;48.174;11.756;2023-06-26T05:17:09;20.80;53.80
10233;DHT22;5161;48.174;11.756;2023-06-26T05:19:35;20.90;54.00
10233;DHT22;5161;48.174;11.756;2023-06-26T05:22:01;20.90;54.10
10233;DHT22;5161;48.174;11.756;2023-06-26T05:24:35;21.00;53.60
10233;DHT22;5161;48.174;11.756;2023-06-26T05:27:02;21.00;54.20
10233;DHT22;5161;48.174;11.756;2023-06-26T05:29:29;21.00;54.10
10233;DHT22;5161;48.174;11.756;2023-06-26T05:31:56;21.00;54.10
10233;DHT22;5161;48.174;11.756;2023-06-26T05:34:23;21.10;54.20
10233;DHT22;5161;48.174;11.756;2023-06-26T05:36:51;21.10;54.10
10233;DHT22;5161;48.174;11.756;2023-06-26T05:39:17;21.10;54.30
10233;DHT22;5161;48.174;11.756;2023-06-26T05:41:44;21.10;53.80
10233;DHT22;5161;48.174;11.756;2023-06-26T05:44:10;21.00;53.80
10233;DHT22;5161;48.174;11.756;2023-06-26T05:46:36;20.90;54.30
10233;DHT22;5161;48.174;11.756;2023-06-26T05:49:01;21.00;54.30
10233;DHT22;5161;48.174;11.756;2023-06-26T05:51:28;21.00;54.30
10233;DHT22;5161;48.174;11.756;2023-06-26T05:53:54;21.10;54.20
10233;DHT22;5161;48.174;11.756;2023-06-26T05:56:20;21.10;53.90
10233;DHT22;5161;48.174;11.756;2023-06-26T05:58:46;21.10;54.30
10233;DHT22;5161;48.174;11.756;2023-06-26T06:01:12;21.20;54.20
10233;DHT22;5161;48.174;11.756;2023-06-26T06:03:39;21.30;54.20
10233;DHT22;5161;48.174;11.756;2023-06-26T06:06:05;21.40;54.40
10233;DHT22;5161;48.174;11.756;2023-06-26T06:08:30;21.40;54.50
10233;DHT22;5161;48.174;11.756;2023-06-26T06:10:56;21.50;54.40
10233;DHT22;5161;48.174;11.756;2023-06-26T06:13:22;21.50;54.30
10233;DHT22;5161;48.174;11.756;2023-06-26T06:15:47;21.50;54.50
10233;DHT22;5161;48.174;11.756;2023-06-26T06:18:13;21.60;54.60
10233;DHT22;5161;48.174;11.756;2023-06-26T06:20:38;21.70;54.60
10233;DHT22;5161;48.174;11.756;2023-06-26T06:23:04;21.60;54.50
10233;DHT22;5161;48.174;11.756;2023-06-26T06:25:29;21.60;54.60
10233;DHT22;5161;48.174;11.756;2023-06-26T06:27:55;21.70;54.70
10233;DHT22;5161;48.174;11.756;2023-06-26T06:30:21;21.70;54.90
10233;DHT22;5161;48.174;11.756;2023-06-26T06:32:46;21.80;54.90
10233;DHT22;5161;48.174;11.756;2023-06-26T06:35:16;21.80;55.00
10233;DHT22;5161;48.174;11.756;2023-06-26T06:37:42;21.80;55.00
10233;DHT22;5161;48.174;11.756;2023-06-26T06:40:09;21.90;55.00
10233;DHT22;5161;48.174;11.756;2023-06-26T06:42:35;22.00;54.90
10233;DHT22;5161;48.174;11.756;2023-06-26T06:45:04;22.00;55.10
10233;DHT22;5161;48.174;11.756;2023-06-26T06:47:31;22.00;54.80
10233;DHT22;5161;48.174;11.756;2023-06-26T06:49:57;22.00;55.10
10233;DHT22;5161;48.174;11.756;2023-06-26T06:52:23;22.10;55.10
10233;DHT22;5161;48.174;11.756;2023-06-26T06:54:53;22.10;55.00
10233;DHT22;5161;48.174;11.756;2023-06-26T06:57:22;22.20;55.00
10233;DHT22;5161;48.174;11.756;2023-06-26T06:59:48;22.20;54.40
10233;DHT22;5161;48.174;11.756;2023-06-26T07:02:17;22.20;54.80
10233;DHT22;5161;48.174;11.756;2023-06-26T07:04:42;22.30;54.80
10233;DHT22;5161;48.174;11.756;2023-06-26T07:07:08;22.30;54.10
10233;DHT22;5161;48.174;11.756;2023-06-26T07:09:37;22.40;53.80
10233;DHT22;5161;48.174;11.756;2023-06-26T07:12:03;22.40;53.40
10233;DHT22;5161;48.174;11.756;2023-06-26T07:14:32;22.50;54.10
10233;DHT22;5161;48.174;11.756;2023-06-26T07:16:57;22.50;53.70
10233;DHT22;5161;48.174;11.756;2023-06-26T07:19:23;22.60;53.40
10233;DHT22;5161;48.174;11.756;2023-06-26T07:21:49;22.60;53.90
10233;DHT22;5161;48.174;11.756;2023-06-26T07:24:15;22.60;53.60
10233;DHT22;5161;48.174;11.756;2023-06-26T07:26:43;22.70;53.90
10233;DHT22;5161;48.174;11.756;2023-06-26T07:29:09;22.70;53.30
10233;DHT22;5161;48.174;11.756;2023-06-26T07:31:34;22.80;52.90
10233;DHT22;5161;48.174;11.756;2023-06-26T07:34:00;22.80;53.40
10233;DHT22;5161;48.174;11.756;2023-06-26T07:36:26;22.80;53.50
10233;DHT22;5161;48.174;11.756;2023-06-26T07:38:52;22.90;53.50
10233;DHT22;5161;48.174;11.756;2023-06-26T07:41:20;22.90;53.30
10233;DHT22;5161;48.174;11.756;2023-06-26T07:43:46;22.90;53.30
10233;DHT22;5161;48.174;11.756;2023-06-26T07:46:12;23.00;53.40
10233;DHT22;5161;48.174;11.756;2023-06-26T07:48:40;23.00;52.00
10233;DHT22;5161;48.174;11.756;2023-06-26T07:51:05;23.10;53.20
10233;DHT22;5161;48.174;11.756;2023-06-26T07:53:31;23.10;52.30
10233;DHT22;5161;48.174;11.756;2023-06-26T07:55:56;23.20;52.00
10233;DHT22;5161;48.174;11.756;2023-06-26T07:58:22;23.30;52.60
10233;DHT22;5161;48.174;11.756;2023-06-26T08:00:47;23.30;52.90
10233;DHT22;5161;48.174;11.756;2023-06-26T08:03:13;23.40;53.20
10233;DHT22;5161;48.174;11.756;2023-06-26T08:05:38;23.40;53.10
10233;DHT22;5161;48.174;11.756;2023-06-26T08:08:04;23.40;53.10
10233;DHT22;5161;48.174;11.756;2023-06-26T08:10:30;23.40;53.00
10233;DHT22;5161;48.174;11.756;2023-06-26T08:12:56;23.50;53.10
10233;DHT22;5161;48.174;11.756;2023-06-26T08:15:21;23.50;52.50
10233;DHT22;5161;48.174;11.756;2023-06-26T08:17:49;23.50;52.70
10233;DHT22;5161;48.174;11.756;2023-06-26T08:20:16;23.50;52.80
10233;DHT22;5161;48.174;11.756;2023-06-26T08:22:41;23.50;52.80
10233;DHT22;5161;48.174;11.756;2023-06-26T08:25:10;23.60;52.80
10233;DHT22;5161;48.174;11.756;2023-06-26T08:27:36;23.60;53.30
10233;DHT22;5161;48.174;11.756;2023-06-26T08:30:02;23.60;52.80
10233;DHT22;5161;48.174;11.756;2023-06-26T08:32:30;23.80;52.80
10233;DHT22;5161;48.174;11.756;2023-06-26T08:34:56;23.80;53.10
10233;DHT22;5161;48.174;11.756;2023-06-26T08:37:22;23.80;53.30
10233;DHT22;5161;48.174;11.756;2023-06-26T08:39:48;23.80;53.40
10233;DHT22;5161;48.174;11.756;2023-06-26T08:42:14;23.90;53.60
10233;DHT22;5161;48.174;11.756;2023-06-26T08:44:43;23.90;53.60
10233;DHT22;5161;48.174;11.756;2023-06-26T08:47:11;24.00;52.60
10233;DHT22;5161;48.174;11.756;2023-06-26T08:49:46;24.10;53.40
10233;DHT22;5161;48.174;11.756;2023-06-26T08:52:20;24.10;53.20
10233;DHT22;5161;48.174;11.756;2023-06-26T08:55:00;24.10;53.50
10233;DHT22;5161;48.174;11.756;2023-06-26T08:57:30;24.20;53.80
10233;DHT22;5161;48.174;11.756;2023-06-26T08:59:56;24.20;53.00
10233;DHT22;5161;48.174;11.756;2023-06-26T09:02:22;24.30;53.50
10233;DHT22;5161;48.174;11.756;2023-06-26T09:04:48;24.30;53.20
10233;DHT22;5161;48.174;11.756;2023-06-26T09:07:17;24.30;53.10
10233;DHT22;5161;48.174;11.756;2023-06-26T09:09:45;24.40;53.50
10233;DHT22;5161;48.174;11.756;2023-06-26T09:12:11;24.40;52.90
10233;DHT22;5161;48.174;11.756;2023-06-26T09:14:37;24.50;52.90
10233;DHT22;5161;48.174;11.756;2023-06-26T09:17:03;24.50;53.50
10233;DHT22;5161;48.174;11.756;2023-06-26T09:19:29;24.60;53.40
10233;DHT22;5161;48.174;11.756;2023-06-26T09:21:58;24.60;52.80
10233;DHT22;5161;48.174;11.756;2023-06-26T09:24:25;24.60;52.60
10233;DHT22;5161;48.174;11.756;2023-06-26T09:26:51;24.70;53.10
10233;DHT22;5161;48.174;11.756;2023-06-26T09:29:20;24.70;53.50
10233;DHT22;5161;48.174;11.756;2023-06-26T09:31:45;24.80;52.40
10233;DHT22;5161;48.174;11.756;2023-06-26T09:34:14;25.00;52.90
10233;DHT22;5161;48.174;11.756;2023-06-26T09:36:40;25.00;52.50
10233;DHT22;5161;48.174;11.756;2023-06-26T09:39:08;25.10;52.70
10233;DHT22;5161;48.174;11.756;2023-06-26T09:41:37;25.00;52.00
10233;DHT22;5161;48.174;11.756;2023-06-26T09:44:05;25.00;52.40
10233;DHT22;5161;48.174;11.756;2023-06-26T09:46:37;25.10;52.50
10233;DHT22;5161;48.174;11.756;2023-06-26T09:49:10;25.20;51.90
10233;DHT22;5161;48.174;11.756;2023-06-26T09:51:44;25.20;51.80
10233;DHT22;5161;48.174;11.756;2023-06-26T09:54:21;25.30;51.20
10233;DHT22;5161;48.174;11.756;2023-06-26T09:57:10;25.30;51.10
10233;DHT22;5161;48.174;11.756;2023-06-26T09:59:36;25.30;52.10
10233;DHT22;5161;48.174;11.756;2023-06-26T10:02:05;25.30;51.30
10233;DHT22;5161;48.174;11.756;2023-06-26T10:04:33;25.40;50.90
10233;DHT22;5161;48.174;11.756;2023-06-26T10:07:02;25.50;50.80
10233;DHT22;5161;48.174;11.756;2023-06-26T10:09:57;25.50;50.90
10233;DHT22;5161;48.174;11.756;2023-06-26T10:12:29;25.50;50.30
10233;DHT22;5161;48.174;11.756;2023-06-26T10:15:02;25.50;51.30
10233;DHT22;5161;48.174;11.756;2023-06-26T10:17:36;25.50;50.60
10233;DHT22;5161;48.174;11.756;2023-06-26T10:20:09;25.70;50.30
10233;DHT22;5161;48.174;11.756;2023-06-26T10:22:46;25.90;50.80
10233;DHT22;5161;48.174;11.756;2023-06-26T10:25:18;25.90;49.30
10233;DHT22;5161;48.174;11.756;2023-06-26T10:27:49;25.90;48.70
10233;DHT22;5161;48.174;11.756;2023-06-26T10:30:21;25.90;50.00
10233;DHT22;5161;48.174;11.756;2023-06-26T10:32:51;26.00;50.30
10233;DHT22;5161;48.174;11.756;2023-06-26T10:35:17;26.10;50.40
10233;DHT22;5161;48.174;11.756;2023-06-26T10:37:48;26.10;50.40
10233;DHT22;5161;48.174;11.756;2023-06-26T10:40:26;26.10;50.10
10233;DHT22;5161;48.174;11.756;2023-06-26T10:43:06;26.20;49.30
10233;DHT22;5161;48.174;11.756;2023-06-26T10:45:34;26.30;49.10
10233;DHT22;5161;48.174;11.756;2023-06-26T10:48:00;26.20;49.40
10233;DHT22;5161;48.174;11.756;2023-06-26T10:50:33;26.20;50.10
10233;DHT22;5161;48.174;11.756;2023-06-26T10:56:01;26.30;49.10
10233;DHT22;5161;48.174;11.756;2023-06-26T10:58:34;26.30;49.40
10233;DHT22;5161;48.174;11.756;2023-06-26T11:01:20;26.30;48.90
10233;DHT22;5161;48.174;11.756;2023-06-26T11:03:49;26.30;49.00
10233;DHT22;5161;48.174;11.756;2023-06-26T11:06:20;26.30;49.20
10233;DHT22;5161;48.174;11.756;2023-06-26T11:14:21;26.50;48.80
10233;DHT22;5161;48.174;11.756;2023-06-26T11:16:50;26.60;48.60
10233;DHT22;5161;48.174;11.756;2023-06-26T11:19:21;26.60;49.40
10233;DHT22;5161;48.174;11.756;2023-06-26T11:21:47;26.70;49.00
10233;DHT22;5161;48.174;11.756;2023-06-26T11:24:13;26.80;48.70
10233;DHT22;5161;48.174;11.756;2023-06-26T11:26:45;26.80;48.10
10233;DHT22;5161;48.174;11.756;2023-06-26T11:29:13;26.80;48.60
10233;DHT22;5161;48.174;11.756;2023-06-26T11:31:40;26.70;48.80
10233;DHT22;5161;48.174;11.756;2023-06-26T11:34:08;26.70;48.60
10233;DHT22;5161;48.174;11.756;2023-06-26T11:36:37;26.80;48.50
10233;DHT22;5161;48.174;11.756;2023-06-26T11:39:07;26.90;47.70
10233;DHT22;5161;48.174;11.756;2023-06-26T11:41:45;27.00;47.60
10233;DHT22;5161;48.174;11.756;2023-06-26T11:44:11;27.10;47.60
10233;DHT22;5161;48.174;11.756;2023-06-26T11:46:39;27.10;48.00
10233;DHT22;5161;48.174;11.756;2023-06-26T11:49:07;27.20;47.70
10233;DHT22;5161;48.174;11.756;2023-06-26T11:51:34;27.30;48.00
10233;DHT22;5161;48.174;11.756;2023-06-26T11:54:02;27.30;47.30
10233;DHT22;5161;48.174;11.756;2023-06-26T11:56:31;27.20;48.00
10233;DHT22;5161;48.174;11.756;2023-06-26T11:59:07;27.20;48.00
10233;DHT22;5161;48.174;11.756;2023-06-26T12:01:43;27.20;49.20
10233;DHT22;5161;48.174;11.756;2023-06-26T12:04:18;27.30;48.20
10233;DHT22;5161;48.174;11.756;2023-06-26T12:06:50;27.40;48.40
10233;DHT22;5161;48.174;11.756;2023-06-26T12:09:20;27.50;48.30
10233;DHT22;5161;48.174;11.756;2023-06-26T12:11:53;27.40;48.40
10233;DHT22;5161;48.174;11.756;2023-06-26T12:14:25;27.30;48.70
10233;DHT22;5161;48.174;11.756;2023-06-26T12:16:53;27.30;48.90
10233;DHT22;5161;48.174;11.756;2023-06-26T12:19:25;27.50;48.80
10233;DHT22;5161;48.174;11.756;2023-06-26T12:21:55;27.50;48.10
10233;DHT22;5161;48.174;11.756;2023-06-26T12:24:26;27.40;47.50
10233;DHT22;5161;48.174;11.756;2023-06-26T12:26:56;27.40;47.20
10233;DHT22;5161;48.174;11.756;2023-06-26T12:29:32;27.50;48.00
10233;DHT22;5161;48.174;11.756;2023-06-26T12:32:01;27.60;47.90
10233;DHT22;5161;48.174;11.756;2023-06-26T12:34:32;27.80;47.40
10233;DHT22;5161;48.174;11.756;2023-06-26T12:37:04;27.80;47.00
10233;DHT22;5161;48.174;11.756;2023-06-26T12:39:45;27.80;47.30
10233;DHT22;5161;48.174;11.756;2023-06-26T12:42:17;27.70;47.10
10233;DHT22;5161;48.174;11.756;2023-06-26T12:44:46;27.70;47.40
10233;DHT22;5161;48.174;11.756;2023-06-26T12:47:13;27.70;47.90
10233;DHT22;5161;48.174;11.756;2023-06-26T12:49:41;27.80;47.50
10233;DHT22;5161;48.174;11.756;2023-06-26T12:52:09;27.90;47.40
10233;DHT22;5161;48.174;11.756;2023-06-26T12:54:39;28.10;46.90
10233;DHT22;5161;48.174;11.756;2023-06-26T12:57:05;28.20;46.30
10233;DHT22;5161;48.174;11.756;2023-06-26T12:59:37;28.30;46.30
10233;DHT22;5161;48.174;11.756;2023-06-26T13:02:03;28.30;46.10
10233;DHT22;5161;48.174;11.756;2023-06-26T13:04:30;28.30;45.20
10233;DHT22;5161;48.174;11.756;2023-06-26T13:06:55;28.30;45.60
10233;DHT22;5161;48.174;11.756;2023-06-26T13:09:22;28.40;46.00
10233;DHT22;5161;48.174;11.756;2023-06-26T13:11:48;28.30;46.20
10233;DHT22;5161;48.174;11.756;2023-06-26T13:14:13;28.20;46.30
10233;DHT22;5161;48.174;11.756;2023-06-26T13:16:40;28.10;45.90
10233;DHT22;5161;48.174;11.756;2023-06-26T13:19:06;28.00;46.70
10233;DHT22;5161;48.174;11.756;2023-06-26T13:21:31;28.00;46.90
10233;DHT22;5161;48.174;11.756;2023-06-26T13:23:57;28.10;46.20
10233;DHT22;5161;48.174;11.756;2023-06-26T13:26:24;28.20;45.80
10233;DHT22;5161;48.174;11.756;2023-06-26T13:28:50;28.10;45.90
10233;DHT22;5161;48.174;11.756;2023-06-26T13:31:16;28.10;46.40
10233;DHT22;5161;48.174;11.756;2023-06-26T13:33:42;28.10;46.30
10233;DHT22;5161;48.174;11.756;2023-06-26T13:36:08;28.10;46.50
10233;DHT22;5161;48.174;11.756;2023-06-26T13:38:33;28.20;47.10
10233;DHT22;5161;48.174;11.756;2023-06-26T13:41:00;28.30;46.30
10233;DHT22;5161;48.174;11.756;2023-06-26T13:43:28;28.40;46.70
10233;DHT22;5161;48.174;11.756;2023-06-26T13:45:55;28.40;46.70
10233;DHT22;5161;48.174;11.756;2023-06-26T13:48:21;28.50;46.90
10233;DHT22;5161;48.174;11.756;2023-06-26T13:50:47;28.50;46.70
10233;DHT22;5161;48.174;11.756;2023-06-26T13:53:13;28.60;46.50
10233;DHT22;5161;48.174;11.756;2023-06-26T13:55:40;28.60;46.60
10233;DHT22;5161;48.174;11.756;2023-06-26T13:58:05;28.60;45.90
10233;DHT22;5161;48.174;11.756;2023-06-26T14:00:32;28.70;45.30
10233;DHT22;5161;48.174;11.756;2023-06-26T14:03:02;28.80;45.60
10233;DHT22;5161;48.174;11.756;2023-06-26T14:05:29;28.90;46.10
10233;DHT22;5161;48.174;11.756;2023-06-26T14:07:54;28.90;45.60
10233;DHT22;5161;48.174;11.756;2023-06-26T14:44:39;29.30;45.60
10233;DHT22;5161;48.174;11.756;2023-06-26T14:47:04;29.30;45.10
10233;DHT22;5161;48.174;11.756;2023-06-26T14:49:30;29.30;45.00
10233;DHT22;5161;48.174;11.756;2023-06-26T14:51:56;29.20;45.30
10233;DHT22;5161;48.174;11.756;2023-06-26T14:54:21;29.20;44.90
10233;DHT22;5161;48.174;11.756;2023-06-26T14:56:47;29.20;44.60
10233;DHT22;5161;48.174;11.756;2023-06-26T14:59:12;29.30;44.80
10233;DHT22;5161;48.174;11.756;2023-06-26T15:01:39;29.30;44.70
10233;DHT22;5161;48.174;11.756;2023-06-26T15:04:05;29.30;45.00
10233;DHT22;5161;48.174;11.756;2023-06-26T15:06:31;29.30;45.20
10233;DHT22;5161;48.174;11.756;2023-06-26T15:08:58;29.40;44.80
10233;DHT22;5161;48.174;11.756;2023-06-26T15:11:23;29.40;45.30
10233;DHT22;5161;48.174;11.756;2023-06-26T15:13:49;29.40;45.00
10233;DHT22;5161;48.174;11.756;2023-06-26T15:16:14;29.40;46.00
10233;DHT22;5161;48.174;11.756;2023-06-26T15:18:41;29.50;45.10
10233;DHT22;5161;48.174;11.756;2023-06-26T15:21:06;29.50;44.90
10233;DHT22;5161;48.174;11.756;2023-06-26T15:23:33;29.50;45.40
10233;DHT22;5161;48.174;11.756;2023-06-26T15:25:59;29.60;45.30
10233;DHT22;5161;48.174;11.756;2023-06-26T15:28:25;29.50;45.00
10233;DHT22;5161;48.174;11.756;2023-06-26T15:30:53;29.40;45.10
10233;DHT22;5161;48.174;11.756;2023-06-26T15:33:19;29.30;45.60
10233;DHT22;5161;48.174;11.756;2023-06-26T15:35:48;29.10;45.90
10233;DHT22;5161;48.174;11.756;2023-06-26T15:38:18;29.10;45.90
10233;DHT22;5161;48.174;11.756;2023-06-26T15:40:44;29.00;45.50
10233;DHT22;5161;48.174;11.756;2023-06-26T15:43:10;28.90;45.60
10233;DHT22;5161;48.174;11.756;2023-06-26T15:45:35;28.90;45.30
10233;DHT22;5161;48.174;11.756;2023-06-26T15:48:01;29.00;45.70
10233;DHT22;5161;48.174;11.756;2023-06-26T15:50:26;28.90;45.50
10233;DHT22;5161;48.174;11.756;2023-06-26T15:52:53;28.90;46.10
10233;DHT22;5161;48.174;11.756;2023-06-26T15:55:19;28.90;46.20
10233;DHT22;5161;48.174;11.756;2023-06-26T15:57:44;28.80;46.00
10233;DHT22;5161;48.174;11.756;2023-06-26T16:00:10;28.70;46.30
10233;DHT22;5161;48.174;11.756;2023-06-26T16:02:37;28.60;46.30
10233;DHT22;5161;48.174;11.756;2023-06-26T16:05:03;28.60;46.10
10233;DHT22;5161;48.174;11.756;2023-06-26T16:07:29;28.60;46.20
10233;DHT22;5161;48.174;11.756;2023-06-26T16:09:56;28.50;46.20
10233;DHT22;5161;48.174;11.756;2023-06-26T16:12:22;28.50;46.70
10233;DHT22;5161;48.174;11.756;2023-06-26T16:14:47;28.40;46.70
10233;DHT22;5161;48.174;11.756;2023-06-26T16:17:13;28.40;46.80
10233;DHT22;5161;48.174;11.756;2023-06-26T16:19:38;28.40;46.90